sensor_id;sensor_type;location;lat;lon;timestamp;pressure;altitude;pressure_sealevel;temperature;humidity
55990;BME280;41875;55.806;38.082;2022-09-01T00:00:45;98643.59;;;15.28;50.43
55990;BME280;41875;55.806;38.082;2022-09-01T00:03:15;98641.06;;;15.47;50.01
55990;BME280;41875;55.806;38.082;2022-09-01T00:05:44;98635.69;;;15.53;49.72
55990;BME280;41875;55.806;38.082;2022-09-01T00:08:19;98634.34;;;15.37;50.28
55990;BME280;41875;55.806;38.082;2022-09-01T00:10:48;98639.31;;;15.20;50.87
55990;BME280;41875;55.806;38.082;2022-09-01T00:13:16;98636.25;;;15.17;50.80
55990;BME280;41875;55.806;38.082;2022-09-01T00:15:46;98637.56;;;14.94;51.57
55990;BME280;41875;55.806;38.082;2022-09-01T00:18:14;98629.16;;;14.97;51.35
55990;BME280;41875;55.806;38.082;2022-09-01T00:20:43;98629.13;;;15.11;50.82
55990;BME280;41875;55.806;38.082;2022-09-01T00:23:11;98622.91;;;15.17;50.77
55990;BME280;41875;55.806;38.082;2022-09-01T00:25:39;98630.81;;;14.85;51.30
55990;BME280;41875;55.806;38.082;2022-09-01T00:28:07;98632.25;;;14.60;52.13
55990;BME280;41875;55.806;38.082;2022-09-01T00:30:36;98633.72;;;14.56;52.84
55990;BME280;41875;55.806;38.082;2022-09-01T00:33:05;98632.25;;;14.87;51.84
55990;BME280;41875;55.806;38.082;2022-09-01T00:35:34;98643.09;;;14.92;51.93
55990;BME280;41875;55.806;38.082;2022-09-01T00:38:03;98643.81;;;15.27;50.70
55990;BME280;41875;55.806;38.082;2022-09-01T00:40:31;98642.06;;;14.93;51.65
55990;BME280;41875;55.806;38.082;2022-09-01T00:42:59;98637.59;;;14.87;51.88
55990;BME280;41875;55.806;38.082;2022-09-01T00:45:28;98639.38;;;15.00;51.52
55990;BME280;41875;55.806;38.082;2022-09-01T00:47:56;98634.66;;;15.02;51.78
55990;BME280;41875;55.806;38.082;2022-09-01T00:50:26;98637.19;;;14.77;52.02
55990;BME280;41875;55.806;38.082;2022-09-01T00:52:54;98635.72;;;14.88;51.77
55990;BME280;41875;55.806;38.082;2022-09-01T00:55:24;98638.66;;;14.73;52.55
55990;BME280;41875;55.806;38.082;2022-09-01T00:57:54;98635.91;;;15.00;51.33
55990;BME280;41875;55.806;38.082;2022-09-01T01:00:23;98634.50;;;14.63;52.28
55990;BME280;41875;55.806;38.082;2022-09-01T01:02:52;98632.88;;;14.76;52.12
55990;BME280;41875;55.806;38.082;2022-09-01T01:05:22;98638.63;;;14.39;52.97
55990;BME280;41875;55.806;38.082;2022-09-01T01:07:56;98626.31;;;14.65;52.64
55990;BME280;41875;55.806;38.082;2022-09-01T01:10:24;98633.91;;;14.08;53.53
55990;BME280;41875;55.806;38.082;2022-09-01T01:12:53;98627.34;;;14.10;53.71
55990;BME280;41875;55.806;38.082;2022-09-01T01:15:22;98635.69;;;13.74;54.45
55990;BME280;41875;55.806;38.082;2022-09-01T01:17:50;98633.28;;;13.92;54.18
55990;BME280;41875;55.806;38.082;2022-09-01T01:20:19;98635.31;;;13.97;54.07
55990;BME280;41875;55.806;38.082;2022-09-01T01:23:09;98627.09;;;13.85;54.27
55990;BME280;41875;55.806;38.082;2022-09-01T01:25:45;98628.06;;;13.50;55.22
55990;BME280;41875;55.806;38.082;2022-09-01T01:28:16;98625.44;;;13.64;54.88
55990;BME280;41875;55.806;38.082;2022-09-01T01:30:50;98621.22;;;14.03;54.02
55990;BME280;41875;55.806;38.082;2022-09-01T01:33:20;98619.16;;;14.12;53.44
55990;BME280;41875;55.806;38.082;2022-09-01T01:35:50;98634.69;;;13.88;53.65
55990;BME280;41875;55.806;38.082;2022-09-01T01:38:19;98625.25;;;13.72;54.46
55990;BME280;41875;55.806;38.082;2022-09-01T01:40:51;98625.69;;;13.89;54.20
55990;BME280;41875;55.806;38.082;2022-09-01T01:43:23;98615.66;;;13.78;54.46
55990;BME280;41875;55.806;38.082;2022-09-01T01:45:53;98621.75;;;13.71;54.22
55990;BME280;41875;55.806;38.082;2022-09-01T01:48:29;98626.06;;;13.72;54.73
55990;BME280;41875;55.806;38.082;2022-09-01T01:51:00;98624.69;;;14.03;53.51
55990;BME280;41875;55.806;38.082;2022-09-01T01:53:31;98621.59;;;13.80;53.45
55990;BME280;41875;55.806;38.082;2022-09-01T01:56:01;98632.72;;;12.93;55.32
55990;BME280;41875;55.806;38.082;2022-09-01T01:58:33;98624.41;;;13.58;53.98
55990;BME280;41875;55.806;38.082;2022-09-01T02:01:07;98627.25;;;13.50;53.53
55990;BME280;41875;55.806;38.082;2022-09-01T02:03:38;98618.97;;;13.31;54.77
55990;BME280;41875;55.806;38.082;2022-09-01T02:06:07;98620.44;;;13.40;54.71
55990;BME280;41875;55.806;38.082;2022-09-01T02:08:39;98615.84;;;13.76;54.04
55990;BME280;41875;55.806;38.082;2022-09-01T02:11:09;98623.19;;;13.61;54.06
55990;BME280;41875;55.806;38.082;2022-09-01T02:13:39;98623.41;;;13.79;53.29
55990;BME280;41875;55.806;38.082;2022-09-01T02:16:07;98627.97;;;13.37;54.68
55990;BME280;41875;55.806;38.082;2022-09-01T02:18:40;98628.44;;;13.47;54.35
55990;BME280;41875;55.806;38.082;2022-09-01T02:21:10;98630.97;;;13.20;55.10
55990;BME280;41875;55.806;38.082;2022-09-01T02:23:45;98629.34;;;13.75;53.09
55990;BME280;41875;55.806;38.082;2022-09-01T02:26:15;98631.84;;;12.86;55.38
55990;BME280;41875;55.806;38.082;2022-09-01T02:28:47;98631.97;;;12.42;56.87
55990;BME280;41875;55.806;38.082;2022-09-01T02:31:24;98639.44;;;12.32;56.95
55990;BME280;41875;55.806;38.082;2022-09-01T02:33:56;98621.91;;;12.38;55.33
55990;BME280;41875;55.806;38.082;2022-09-01T02:36:25;98628.66;;;12.40;54.71
55990;BME280;41875;55.806;38.082;2022-09-01T02:38:54;98625.88;;;12.84;53.16
55990;BME280;41875;55.806;38.082;2022-09-01T02:41:25;98630.97;;;12.78;53.76
55990;BME280;41875;55.806;38.082;2022-09-01T02:43:58;98623.97;;;13.06;52.02
55990;BME280;41875;55.806;38.082;2022-09-01T02:46:29;98621.19;;;13.21;51.34
55990;BME280;41875;55.806;38.082;2022-09-01T02:48:57;98621.31;;;13.13;51.78
55990;BME280;41875;55.806;38.082;2022-09-01T02:51:26;98641.13;;;12.68;53.19
55990;BME280;41875;55.806;38.082;2022-09-01T02:53:55;98635.53;;;12.28;54.27
55990;BME280;41875;55.806;38.082;2022-09-01T02:56:27;98641.72;;;12.13;54.16
55990;BME280;41875;55.806;38.082;2022-09-01T02:58:56;98640.81;;;13.20;51.98
55990;BME280;41875;55.806;38.082;2022-09-01T03:01:28;98638.09;;;15.23;47.12
55990;BME280;41875;55.806;38.082;2022-09-01T03:04:00;98637.88;;;15.24;46.13
55990;BME280;41875;55.806;38.082;2022-09-01T03:06:29;98641.28;;;15.45;45.69
55990;BME280;41875;55.806;38.082;2022-09-01T03:09:01;98634.69;;;13.81;49.10
55990;BME280;41875;55.806;38.082;2022-09-01T03:11:31;98628.47;;;13.54;50.39
55990;BME280;41875;55.806;38.082;2022-09-01T03:14:00;98640.75;;;13.55;50.02
55990;BME280;41875;55.806;38.082;2022-09-01T03:16:29;98642.38;;;13.07;51.46
55990;BME280;41875;55.806;38.082;2022-09-01T03:18:59;98643.00;;;12.46;52.64
55990;BME280;41875;55.806;38.082;2022-09-01T03:21:29;98646.09;;;12.21;53.47
55990;BME280;41875;55.806;38.082;2022-09-01T03:23:58;98641.97;;;12.69;52.92
55990;BME280;41875;55.806;38.082;2022-09-01T03:26:28;98642.09;;;12.89;52.56
55990;BME280;41875;55.806;38.082;2022-09-01T03:28:58;98643.25;;;13.21;51.58
55990;BME280;41875;55.806;38.082;2022-09-01T03:31:27;98646.38;;;13.32;51.10
55990;BME280;41875;55.806;38.082;2022-09-01T03:34:00;98645.81;;;13.01;51.88
55990;BME280;41875;55.806;38.082;2022-09-01T03:36:33;98641.56;;;13.49;50.89
55990;BME280;41875;55.806;38.082;2022-09-01T03:39:02;98651.53;;;12.98;52.63
55990;BME280;41875;55.806;38.082;2022-09-01T03:41:31;98630.75;;;12.73;52.43
55990;BME280;41875;55.806;38.082;2022-09-01T03:44:01;98639.88;;;12.99;51.95
55990;BME280;41875;55.806;38.082;2022-09-01T03:46:31;98632.88;;;12.91;52.36
55990;BME280;41875;55.806;38.082;2022-09-01T03:49:04;98647.78;;;12.86;52.92
55990;BME280;41875;55.806;38.082;2022-09-01T03:51:36;98648.00;;;13.33;51.64
55990;BME280;41875;55.806;38.082;2022-09-01T03:54:06;98640.22;;;13.73;50.75
55990;BME280;41875;55.806;38.082;2022-09-01T03:56:35;98646.94;;;13.69;50.60
55990;BME280;41875;55.806;38.082;2022-09-01T03:59:12;98642.13;;;14.26;48.96
55990;BME280;41875;55.806;38.082;2022-09-01T04:01:44;98645.72;;;13.78;50.19
55990;BME280;41875;55.806;38.082;2022-09-01T04:04:14;98632.88;;;13.95;49.58
55990;BME280;41875;55.806;38.082;2022-09-01T04:06:43;98624.28;;;14.00;48.98
55990;BME280;41875;55.806;38.082;2022-09-01T04:09:12;98639.50;;;13.02;51.02
55990;BME280;41875;55.806;38.082;2022-09-01T04:11:43;98642.09;;;12.60;52.31
55990;BME280;41875;55.806;38.082;2022-09-01T04:14:17;98644.88;;;13.16;51.70
55990;BME280;41875;55.806;38.082;2022-09-01T04:16:47;98643.28;;;13.83;49.83
55990;BME280;41875;55.806;38.082;2022-09-01T04:19:35;98639.03;;;14.09;48.97
55990;BME280;41875;55.806;38.082;2022-09-01T04:22:09;98650.31;;;14.45;48.66
55990;BME280;41875;55.806;38.082;2022-09-01T04:24:43;98646.56;;;13.30;50.17
55990;BME280;41875;55.806;38.082;2022-09-01T04:27:14;98642.91;;;13.93;48.88
55990;BME280;41875;55.806;38.082;2022-09-01T04:29:46;98645.63;;;14.74;47.56
55990;BME280;41875;55.806;38.082;2022-09-01T04:32:14;98650.91;;;14.87;46.74
55990;BME280;41875;55.806;38.082;2022-09-01T04:34:46;98652.66;;;15.27;45.76
55990;BME280;41875;55.806;38.082;2022-09-01T04:37:17;98644.00;;;15.77;44.65
55990;BME280;41875;55.806;38.082;2022-09-01T04:39:54;98642.97;;;15.39;45.39
55990;BME280;41875;55.806;38.082;2022-09-01T04:42:25;98651.91;;;15.06;45.85
55990;BME280;41875;55.806;38.082;2022-09-01T04:44:58;98635.25;;;15.11;45.33
55990;BME280;41875;55.806;38.082;2022-09-01T04:47:38;98644.31;;;15.55;44.60
55990;BME280;41875;55.806;38.082;2022-09-01T04:50:11;98641.63;;;15.03;44.91
55990;BME280;41875;55.806;38.082;2022-09-01T04:53:02;98648.81;;;15.09;45.19
55990;BME280;41875;55.806;38.082;2022-09-01T04:55:47;98634.47;;;14.90;45.47
55990;BME280;41875;55.806;38.082;2022-09-01T04:58:18;98643.34;;;14.51;45.78
55990;BME280;41875;55.806;38.082;2022-09-01T05:00:50;98644.72;;;13.86;46.92
55990;BME280;41875;55.806;38.082;2022-09-01T05:03:20;98644.97;;;14.11;46.79
55990;BME280;41875;55.806;38.082;2022-09-01T05:06:03;98655.84;;;14.37;46.00
55990;BME280;41875;55.806;38.082;2022-09-01T05:08:32;98648.25;;;14.27;45.99
55990;BME280;41875;55.806;38.082;2022-09-01T05:11:10;98655.97;;;13.75;45.67
55990;BME280;41875;55.806;38.082;2022-09-01T05:13:45;98652.81;;;13.44;46.13
55990;BME280;41875;55.806;38.082;2022-09-01T05:16:16;98663.63;;;14.25;44.42
55990;BME280;41875;55.806;38.082;2022-09-01T05:18:55;98659.53;;;14.36;43.19
55990;BME280;41875;55.806;38.082;2022-09-01T05:21:29;98660.81;;;12.80;46.64
55990;BME280;41875;55.806;38.082;2022-09-01T05:23:59;98665.00;;;12.90;46.66
55990;BME280;41875;55.806;38.082;2022-09-01T05:26:31;98670.44;;;13.17;46.24
55990;BME280;41875;55.806;38.082;2022-09-01T05:29:02;98660.75;;;12.39;48.52
55990;BME280;41875;55.806;38.082;2022-09-01T05:31:38;98675.34;;;13.55;45.60
55990;BME280;41875;55.806;38.082;2022-09-01T05:34:07;98664.00;;;14.01;44.69
55990;BME280;41875;55.806;38.082;2022-09-01T05:36:42;98665.38;;;13.77;44.96
55990;BME280;41875;55.806;38.082;2022-09-01T05:39:12;98669.97;;;14.30;43.98
55990;BME280;41875;55.806;38.082;2022-09-01T05:41:40;98675.97;;;14.80;43.05
55990;BME280;41875;55.806;38.082;2022-09-01T05:44:09;98667.13;;;14.52;43.48
55990;BME280;41875;55.806;38.082;2022-09-01T05:46:39;98667.91;;;15.06;42.30
55990;BME280;41875;55.806;38.082;2022-09-01T05:49:11;98668.97;;;15.51;40.88
55990;BME280;41875;55.806;38.082;2022-09-01T05:51:44;98674.50;;;14.43;42.09
55990;BME280;41875;55.806;38.082;2022-09-01T05:54:21;98670.13;;;15.68;39.84
55990;BME280;41875;55.806;38.082;2022-09-01T05:56:54;98668.31;;;16.58;37.62
55990;BME280;41875;55.806;38.082;2022-09-01T05:59:38;98673.16;;;17.12;36.77
55990;BME280;41875;55.806;38.082;2022-09-01T06:02:15;98675.34;;;15.95;38.25
55990;BME280;41875;55.806;38.082;2022-09-01T06:04:45;98665.94;;;15.93;37.89
55990;BME280;41875;55.806;38.082;2022-09-01T06:07:20;98665.13;;;15.33;39.61
55990;BME280;41875;55.806;38.082;2022-09-01T06:09:53;98663.34;;;15.27;39.47
55990;BME280;41875;55.806;38.082;2022-09-01T06:12:22;98666.03;;;16.05;38.23
55990;BME280;41875;55.806;38.082;2022-09-01T06:14:52;98666.94;;;15.46;38.53
55990;BME280;41875;55.806;38.082;2022-09-01T06:17:24;98666.50;;;14.97;39.45
55990;BME280;41875;55.806;38.082;2022-09-01T06:19:56;98670.09;;;15.75;38.56
55990;BME280;41875;55.806;38.082;2022-09-01T06:22:26;98667.69;;;15.60;38.48
55990;BME280;41875;55.806;38.082;2022-09-01T06:24:57;98671.78;;;15.69;38.29
55990;BME280;41875;55.806;38.082;2022-09-01T06:27:36;98653.19;;;15.81;37.61
55990;BME280;41875;55.806;38.082;2022-09-01T06:30:11;98667.41;;;15.30;38.70
55990;BME280;41875;55.806;38.082;2022-09-01T06:32:59;98671.84;;;14.70;39.82
55990;BME280;41875;55.806;38.082;2022-09-01T06:35:30;98677.69;;;15.85;38.43
55990;BME280;41875;55.806;38.082;2022-09-01T06:37:59;98671.31;;;16.43;37.00
55990;BME280;41875;55.806;38.082;2022-09-01T06:40:47;98674.66;;;17.27;35.46
55990;BME280;41875;55.806;38.082;2022-09-01T06:43:21;98675.34;;;17.41;35.63
55990;BME280;41875;55.806;38.082;2022-09-01T06:45:50;98683.19;;;17.54;35.17
55990;BME280;41875;55.806;38.082;2022-09-01T06:48:24;98667.13;;;16.54;37.93
55990;BME280;41875;55.806;38.082;2022-09-01T06:51:06;98663.47;;;16.49;36.30
55990;BME280;41875;55.806;38.082;2022-09-01T06:53:49;98675.66;;;16.88;35.33
55990;BME280;41875;55.806;38.082;2022-09-01T06:56:25;98670.13;;;17.09;35.83
55990;BME280;41875;55.806;38.082;2022-09-01T06:58:58;98678.38;;;17.26;34.72
55990;BME280;41875;55.806;38.082;2022-09-01T07:01:28;98659.59;;;17.14;34.12
55990;BME280;41875;55.806;38.082;2022-09-01T07:03:59;98670.31;;;16.38;35.87
55990;BME280;41875;55.806;38.082;2022-09-01T07:06:47;98672.81;;;16.07;36.75
55990;BME280;41875;55.806;38.082;2022-09-01T07:09:45;98675.22;;;16.91;35.95
55990;BME280;41875;55.806;38.082;2022-09-01T07:12:40;98678.97;;;17.46;34.81
55990;BME280;41875;55.806;38.082;2022-09-01T07:15:32;98669.03;;;16.91;36.41
55990;BME280;41875;55.806;38.082;2022-09-01T07:18:22;98668.66;;;16.11;36.72
55990;BME280;41875;55.806;38.082;2022-09-01T07:20:52;98672.66;;;14.64;40.02
55990;BME280;41875;55.806;38.082;2022-09-01T07:23:34;98682.63;;;15.16;39.70
55990;BME280;41875;55.806;38.082;2022-09-01T07:26:24;98684.72;;;15.00;39.99
55990;BME280;41875;55.806;38.082;2022-09-01T07:28:54;98690.56;;;15.36;38.91
55990;BME280;41875;55.806;38.082;2022-09-01T07:31:33;98691.94;;;14.80;40.20
55990;BME280;41875;55.806;38.082;2022-09-01T07:34:24;98678.31;;;16.12;37.81
55990;BME280;41875;55.806;38.082;2022-09-01T07:37:14;98687.69;;;16.28;38.16
55990;BME280;41875;55.806;38.082;2022-09-01T07:40:04;98691.38;;;17.03;36.67
55990;BME280;41875;55.806;38.082;2022-09-01T07:42:59;98696.75;;;16.53;37.59
55990;BME280;41875;55.806;38.082;2022-09-01T07:46:05;98685.25;;;16.20;38.20
55990;BME280;41875;55.806;38.082;2022-09-01T07:48:55;98693.81;;;15.97;38.58
55990;BME280;41875;55.806;38.082;2022-09-01T07:51:44;98682.00;;;16.18;38.22
55990;BME280;41875;55.806;38.082;2022-09-01T07:54:21;98684.03;;;15.38;39.38
55990;BME280;41875;55.806;38.082;2022-09-01T07:56:51;98685.84;;;15.38;39.57
55990;BME280;41875;55.806;38.082;2022-09-01T07:59:22;98689.06;;;14.61;41.54
55990;BME280;41875;55.806;38.082;2022-09-01T08:02:12;98690.34;;;15.51;40.22
55990;BME280;41875;55.806;38.082;2022-09-01T08:04:45;98694.22;;;17.46;36.68
55990;BME280;41875;55.806;38.082;2022-09-01T08:07:15;98693.97;;;17.96;36.04
55990;BME280;41875;55.806;38.082;2022-09-01T08:09:44;98690.63;;;17.52;35.62
55990;BME280;41875;55.806;38.082;2022-09-01T08:12:14;98687.00;;;17.09;36.71
55990;BME280;41875;55.806;38.082;2022-09-01T08:14:51;98687.22;;;16.64;37.68
55990;BME280;41875;55.806;38.082;2022-09-01T08:17:40;98687.66;;;15.51;39.38
55990;BME280;41875;55.806;38.082;2022-09-01T08:20:30;98696.88;;;16.07;38.70
55990;BME280;41875;55.806;38.082;2022-09-01T08:23:08;98685.47;;;15.87;39.07
55990;BME280;41875;55.806;38.082;2022-09-01T08:25:39;98683.28;;;15.04;41.36
55990;BME280;41875;55.806;38.082;2022-09-01T08:28:08;98682.38;;;16.22;39.11
55990;BME280;41875;55.806;38.082;2022-09-01T08:30:40;98691.06;;;16.68;37.67
55990;BME280;41875;55.806;38.082;2022-09-01T08:33:18;98681.63;;;16.65;38.03
55990;BME280;41875;55.806;38.082;2022-09-01T08:35:47;98687.00;;;17.09;37.23
55990;BME280;41875;55.806;38.082;2022-09-01T08:38:17;98679.81;;;16.59;38.17
55990;BME280;41875;55.806;38.082;2022-09-01T08:40:50;98688.25;;;15.60;39.90
55990;BME280;41875;55.806;38.082;2022-09-01T08:43:27;98691.81;;;16.24;39.19
55990;BME280;41875;55.806;38.082;2022-09-01T08:46:01;98683.03;;;16.42;38.59
55990;BME280;41875;55.806;38.082;2022-09-01T08:48:36;98689.59;;;15.23;40.95
55990;BME280;41875;55.806;38.082;2022-09-01T08:51:31;98696.00;;;15.02;41.75
55990;BME280;41875;55.806;38.082;2022-09-01T08:54:03;98692.53;;;15.08;42.09
55990;BME280;41875;55.806;38.082;2022-09-01T08:56:35;98694.38;;;15.01;42.19
55990;BME280;41875;55.806;38.082;2022-09-01T08:59:07;98695.91;;;15.36;41.13
55990;BME280;41875;55.806;38.082;2022-09-01T09:01:58;98708.28;;;17.23;38.24
55990;BME280;41875;55.806;38.082;2022-09-01T09:04:32;98710.06;;;16.85;38.42
55990;BME280;41875;55.806;38.082;2022-09-01T09:07:04;98714.38;;;17.30;37.41
55990;BME280;41875;55.806;38.082;2022-09-01T09:09:40;98717.41;;;17.71;36.64
55990;BME280;41875;55.806;38.082;2022-09-01T09:12:31;98723.53;;;17.41;36.70
55990;BME280;41875;55.806;38.082;2022-09-01T09:15:16;98717.16;;;15.69;39.24
55990;BME280;41875;55.806;38.082;2022-09-01T09:17:48;98716.50;;;15.81;39.27
55990;BME280;41875;55.806;38.082;2022-09-01T09:20:26;98718.63;;;16.68;37.96
55990;BME280;41875;55.806;38.082;2022-09-01T09:22:54;98722.69;;;16.45;37.98
55990;BME280;41875;55.806;38.082;2022-09-01T09:25:25;98733.38;;;16.13;39.09
55990;BME280;41875;55.806;38.082;2022-09-01T09:27:56;98734.19;;;14.89;41.33
55990;BME280;41875;55.806;38.082;2022-09-01T09:30:27;98732.34;;;13.74;43.84
55990;BME280;41875;55.806;38.082;2022-09-01T09:32:57;98735.13;;;14.21;42.53
55990;BME280;41875;55.806;38.082;2022-09-01T09:35:50;98736.63;;;15.11;40.31
55990;BME280;41875;55.806;38.082;2022-09-01T09:38:20;98730.03;;;15.93;38.60
55990;BME280;41875;55.806;38.082;2022-09-01T09:40:56;98736.25;;;16.76;37.11
55990;BME280;41875;55.806;38.082;2022-09-01T09:43:48;98744.44;;;16.56;37.12
55990;BME280;41875;55.806;38.082;2022-09-01T09:46:25;98737.31;;;15.59;38.13
55990;BME280;41875;55.806;38.082;2022-09-01T09:49:08;98738.47;;;15.11;38.40
55990;BME280;41875;55.806;38.082;2022-09-01T09:51:37;98742.50;;;15.40;38.69
55990;BME280;41875;55.806;38.082;2022-09-01T09:54:10;98750.41;;;13.92;41.24
55990;BME280;41875;55.806;38.082;2022-09-01T09:56:39;98746.69;;;15.02;39.28
55990;BME280;41875;55.806;38.082;2022-09-01T10:02:24;98749.38;;;14.82;40.18
55990;BME280;41875;55.806;38.082;2022-09-01T10:04:54;98752.97;;;16.97;36.86
55990;BME280;41875;55.806;38.082;2022-09-01T10:07:27;98754.97;;;16.76;36.57
55990;BME280;41875;55.806;38.082;2022-09-01T10:09:58;98748.84;;;16.69;36.21
55990;BME280;41875;55.806;38.082;2022-09-01T10:12:29;98750.22;;;17.03;36.05
55990;BME280;41875;55.806;38.082;2022-09-01T10:15:00;98760.25;;;17.15;35.70
55990;BME280;41875;55.806;38.082;2022-09-01T10:17:39;98763.94;;;17.14;35.59
55990;BME280;41875;55.806;38.082;2022-09-01T10:20:11;98754.88;;;17.89;34.45
55990;BME280;41875;55.806;38.082;2022-09-01T10:22:41;98770.16;;;17.51;34.42
55990;BME280;41875;55.806;38.082;2022-09-01T10:25:11;98765.75;;;17.39;35.01
55990;BME280;41875;55.806;38.082;2022-09-01T10:27:41;98776.84;;;17.61;34.30
55990;BME280;41875;55.806;38.082;2022-09-01T10:30:15;98763.81;;;17.83;33.49
55990;BME280;41875;55.806;38.082;2022-09-01T10:32:48;98773.16;;;16.92;34.96
55990;BME280;41875;55.806;38.082;2022-09-01T10:35:22;98773.88;;;16.49;36.46
55990;BME280;41875;55.806;38.082;2022-09-01T10:37:53;98771.47;;;17.24;34.57
55990;BME280;41875;55.806;38.082;2022-09-01T10:40:35;98773.25;;;17.86;34.13
55990;BME280;41875;55.806;38.082;2022-09-01T10:46:07;98780.88;;;16.75;35.35
55990;BME280;41875;55.806;38.082;2022-09-01T10:48:43;98775.28;;;16.58;35.88
55990;BME280;41875;55.806;38.082;2022-09-01T10:51:39;98780.56;;;16.65;35.54
55990;BME280;41875;55.806;38.082;2022-09-01T11:00:20;98777.34;;;17.51;34.33
55990;BME280;41875;55.806;38.082;2022-09-01T11:03:32;98775.44;;;17.40;34.83
55990;BME280;41875;55.806;38.082;2022-09-01T11:09:02;98771.03;;;17.82;34.12
55990;BME280;41875;55.806;38.082;2022-09-01T11:11:33;98777.22;;;17.83;34.20
55990;BME280;41875;55.806;38.082;2022-09-01T11:14:15;98775.09;;;17.11;34.96
55990;BME280;41875;55.806;38.082;2022-09-01T11:16:47;98774.72;;;17.07;35.92
55990;BME280;41875;55.806;38.082;2022-09-01T11:19:40;98775.00;;;16.67;36.12
55990;BME280;41875;55.806;38.082;2022-09-01T11:22:18;98777.13;;;16.83;35.50
55990;BME280;41875;55.806;38.082;2022-09-01T11:25:06;98781.00;;;16.30;35.88
55990;BME280;41875;55.806;38.082;2022-09-01T11:28:00;98779.16;;;16.63;36.25
55990;BME280;41875;55.806;38.082;2022-09-01T11:30:32;98781.34;;;16.40;36.56
55990;BME280;41875;55.806;38.082;2022-09-01T11:33:06;98777.22;;;16.70;36.19
55990;BME280;41875;55.806;38.082;2022-09-01T11:35:39;98779.06;;;16.76;35.99
55990;BME280;41875;55.806;38.082;2022-09-01T11:38:09;98778.78;;;17.54;34.80
55990;BME280;41875;55.806;38.082;2022-09-01T11:40:41;98772.16;;;17.75;34.86
55990;BME280;41875;55.806;38.082;2022-09-01T11:43:10;98759.84;;;17.86;34.37
55990;BME280;41875;55.806;38.082;2022-09-01T11:45:43;98776.31;;;17.52;35.00
55990;BME280;41875;55.806;38.082;2022-09-01T11:48:16;98767.91;;;18.04;34.10
55990;BME280;41875;55.806;38.082;2022-09-01T11:50:45;98771.53;;;18.10;33.71
55990;BME280;41875;55.806;38.082;2022-09-01T11:53:23;98763.00;;;17.82;33.88
55990;BME280;41875;55.806;38.082;2022-09-01T11:55:55;98771.97;;;17.14;34.66
55990;BME280;41875;55.806;38.082;2022-09-01T11:58:31;98770.22;;;17.63;34.62
55990;BME280;41875;55.806;38.082;2022-09-01T12:01:12;98770.88;;;17.40;34.32
55990;BME280;41875;55.806;38.082;2022-09-01T12:03:41;98773.19;;;17.36;34.41
55990;BME280;41875;55.806;38.082;2022-09-01T12:06:10;98772.81;;;17.70;34.39
55990;BME280;41875;55.806;38.082;2022-09-01T12:08:41;98766.22;;;18.22;33.33
55990;BME280;41875;55.806;38.082;2022-09-01T12:11:19;98758.69;;;18.85;31.71
55990;BME280;41875;55.806;38.082;2022-09-01T12:13:53;98764.75;;;18.38;32.56
55990;BME280;41875;55.806;38.082;2022-09-01T12:16:22;98762.31;;;18.36;32.77
55990;BME280;41875;55.806;38.082;2022-09-01T12:18:51;98760.38;;;18.55;32.59
55990;BME280;41875;55.806;38.082;2022-09-01T12:21:23;98764.59;;;18.21;33.10
55990;BME280;41875;55.806;38.082;2022-09-01T12:23:52;98746.28;;;18.60;32.45
55990;BME280;41875;55.806;38.082;2022-09-01T12:26:23;98750.47;;;18.56;31.95
55990;BME280;41875;55.806;38.082;2022-09-01T12:28:52;98763.97;;;17.51;33.66
55990;BME280;41875;55.806;38.082;2022-09-01T12:31:22;98755.06;;;17.76;33.95
55990;BME280;41875;55.806;38.082;2022-09-01T12:33:51;98757.63;;;18.01;33.79
55990;BME280;41875;55.806;38.082;2022-09-01T12:36:21;98756.88;;;18.12;32.55
55990;BME280;41875;55.806;38.082;2022-09-01T12:38:51;98747.75;;;18.44;32.40
55990;BME280;41875;55.806;38.082;2022-09-01T12:41:31;98754.06;;;17.70;33.58
55990;BME280;41875;55.806;38.082;2022-09-01T12:46:47;98757.09;;;18.11;32.36
55990;BME280;41875;55.806;38.082;2022-09-01T12:49:16;98751.09;;;18.82;32.25
55990;BME280;41875;55.806;38.082;2022-09-01T12:51:45;98748.19;;;18.29;32.29
55990;BME280;41875;55.806;38.082;2022-09-01T12:54:14;98750.69;;;18.42;32.11
55990;BME280;41875;55.806;38.082;2022-09-01T12:56:47;98754.94;;;18.01;33.03
55990;BME280;41875;55.806;38.082;2022-09-01T12:59:20;98743.81;;;17.67;33.36
55990;BME280;41875;55.806;38.082;2022-09-01T13:04:49;98748.66;;;18.80;31.56
55990;BME280;41875;55.806;38.082;2022-09-01T13:07:17;98742.97;;;17.85;33.28
55990;BME280;41875;55.806;38.082;2022-09-01T13:09:46;98757.31;;;17.91;32.75
55990;BME280;41875;55.806;38.082;2022-09-01T13:12:16;98748.19;;;17.80;32.71
55990;BME280;41875;55.806;38.082;2022-09-01T13:14:45;98746.84;;;17.15;33.75
55990;BME280;41875;55.806;38.082;2022-09-01T13:17:14;98741.78;;;17.62;33.45
55990;BME280;41875;55.806;38.082;2022-09-01T13:19:43;98745.31;;;17.44;33.76
55990;BME280;41875;55.806;38.082;2022-09-01T13:22:11;98735.56;;;17.50;33.87
55990;BME280;41875;55.806;38.082;2022-09-01T13:24:39;98737.22;;;18.00;32.79
55990;BME280;41875;55.806;38.082;2022-09-01T13:27:08;98732.72;;;17.63;33.12
55990;BME280;41875;55.806;38.082;2022-09-01T13:29:48;98738.38;;;17.18;34.51
55990;BME280;41875;55.806;38.082;2022-09-01T13:32:17;98738.03;;;17.33;33.94
55990;BME280;41875;55.806;38.082;2022-09-01T13:34:48;98734.50;;;17.51;33.57
55990;BME280;41875;55.806;38.082;2022-09-01T13:37:17;98733.84;;;17.18;33.42
55990;BME280;41875;55.806;38.082;2022-09-01T13:39:46;98732.16;;;17.92;32.86
55990;BME280;41875;55.806;38.082;2022-09-01T13:42:14;98740.53;;;17.65;32.70
55990;BME280;41875;55.806;38.082;2022-09-01T13:44:43;98732.00;;;17.56;32.78